createdAt,value
2023-04-07T00:02:27.620Z,34.60
2023-04-07T00:05:04.281Z,35.70
2023-04-07T00:07:52.378Z,33.30
2023-04-07T00:10:40.198Z,35.70
2023-04-07T00:13:23.813Z,38.05
2023-04-07T00:15:53.468Z,33.58
2023-04-07T00:18:22.664Z,32.28
2023-04-07T00:20:59.758Z,31.92
2023-04-07T00:23:33.914Z,34.63
2023-04-07T00:26:32.948Z,35.00
2023-04-07T00:29:06.165Z,35.50
2023-04-07T00:31:37.525Z,33.15
2023-04-07T00:34:15.911Z,33.30
2023-04-07T00:36:52.491Z,36.08
2023-04-07T00:39:23.783Z,34.35
2023-04-07T00:41:55.254Z,37.10
2023-04-07T00:44:24.668Z,35.00
2023-04-07T00:46:56.097Z,40.72
2023-04-07T00:49:28.760Z,35.95
2023-04-07T00:51:59.188Z,34.75
2023-04-07T00:54:30.741Z,33.70
2023-04-07T00:57:03.115Z,33.88
2023-04-07T00:59:46.370Z,36.45
2023-04-07T01:02:19.781Z,32.60
2023-04-07T01:04:53.584Z,27.85
2023-04-07T01:07:33.548Z,29.98
2023-04-07T01:10:08.554Z,27.50
2023-04-07T01:12:42.927Z,29.83
2023-04-07T01:15:21.712Z,32.05
2023-04-07T01:17:57.395Z,27.02
2023-04-07T01:20:28.844Z,26.55
2023-04-07T01:25:59.495Z,26.40
2023-04-07T01:28:59.686Z,27.38
2023-04-07T01:31:36.815Z,26.20
2023-04-07T01:34:11.960Z,25.35
2023-04-07T01:36:46.158Z,26.80
2023-04-07T01:39:15.966Z,24.15
2023-04-07T01:41:55.373Z,26.45
2023-04-07T01:44:25.253Z,23.55
2023-04-07T01:46:59.961Z,27.27
2023-04-07T01:49:32.286Z,25.80
2023-04-07T01:52:07.306Z,26.45
2023-04-07T01:54:36.731Z,27.90
2023-04-07T01:57:11.856Z,28.60
2023-04-07T01:59:41.694Z,27.88
2023-04-07T02:02:13.937Z,25.00
2023-04-07T02:04:52.248Z,28.35
2023-04-07T02:07:26.405Z,27.92
2023-04-07T02:09:59.897Z,30.55
2023-04-07T02:12:35.897Z,31.73
2023-04-07T02:15:06.803Z,30.17
2023-04-07T02:17:41.195Z,24.83
2023-04-07T02:20:11.655Z,32.40
2023-04-07T02:22:58.090Z,29.45
2023-04-07T02:25:31.652Z,30.27
2023-04-07T02:28:03.100Z,29.08
2023-04-07T02:30:35.282Z,27.20
2023-04-07T02:33:14.518Z,29.50
2023-04-07T02:35:44.414Z,26.50
2023-04-07T02:40:47.339Z,24.80
2023-04-07T02:43:22.796Z,25.05
2023-04-07T02:45:55.919Z,24.38
2023-04-07T02:48:30.532Z,26.33
2023-04-07T02:51:01.538Z,28.83
2023-04-07T02:53:33.470Z,27.17
2023-04-07T02:56:12.029Z,26.27
2023-04-07T02:58:42.061Z,25.52
2023-04-07T03:01:11.842Z,26.13
2023-04-07T03:04:10.764Z,25.67
2023-04-07T03:06:44.049Z,24.23
2023-04-07T03:09:14.855Z,25.30
2023-04-07T03:11:46.815Z,24.17
2023-04-07T03:14:19.518Z,24.05
2023-04-07T03:17:01.858Z,22.15
2023-04-07T03:19:36.957Z,24.50
2023-04-07T03:22:06.235Z,26.30
2023-04-07T03:24:38.660Z,26.13
2023-04-07T03:27:18.070Z,28.00
2023-04-07T03:29:48.192Z,26.70
2023-04-07T03:32:18.273Z,28.50
2023-04-07T03:34:59.458Z,27.67
2023-04-07T03:38:02.304Z,28.45
2023-04-07T03:40:36.170Z,30.50
2023-04-07T03:43:05.999Z,29.60
2023-04-07T03:45:53.360Z,27.33
2023-04-07T03:48:30.400Z,29.13
2023-04-07T03:51:02.790Z,28.33
2023-04-07T03:53:32.478Z,28.17
2023-04-07T03:56:05.375Z,25.13
2023-04-07T03:58:43.261Z,27.80
2023-04-07T04:01:19.866Z,28.95
2023-04-07T04:03:58.264Z,28.48
2023-04-07T04:09:02.076Z,28.20
2023-04-07T04:11:32.005Z,26.40
2023-04-07T04:14:09.703Z,28.15
2023-04-07T04:16:42.574Z,31.95
2023-04-07T04:19:13.824Z,31.13
2023-04-07T04:21:46.594Z,28.42
2023-04-07T04:24:15.839Z,24.58
2023-04-07T04:26:47.266Z,25.92
2023-04-07T04:29:18.386Z,23.10
2023-04-07T04:31:57.118Z,24.30
2023-04-07T04:34:26.426Z,22.08
2023-04-07T04:39:44.865Z,27.83
2023-04-07T04:42:19.162Z,27.67
2023-04-07T04:44:50.357Z,27.42
2023-04-07T04:47:23.011Z,27.13
2023-04-07T04:50:00.163Z,26.77
2023-04-07T04:52:33.997Z,26.80
2023-04-07T04:55:08.305Z,26.70
2023-04-07T04:57:48.800Z,32.63
2023-04-07T05:00:21.369Z,29.58
2023-04-07T05:02:50.859Z,41.67
2023-04-07T05:05:22.730Z,27.52
2023-04-07T05:08:01.500Z,39.75
2023-04-07T05:10:30.362Z,26.63
2023-04-07T05:13:02.300Z,32.45
2023-04-07T05:15:31.929Z,34.97
2023-04-07T05:18:01.685Z,42.65
2023-04-07T05:20:30.991Z,31.98
2023-04-07T05:23:03.036Z,29.63
2023-04-07T05:25:32.888Z,29.75
2023-04-07T05:28:03.208Z,24.73
2023-04-07T05:30:33.785Z,35.05
2023-04-07T05:33:06.355Z,31.98
2023-04-07T05:35:35.934Z,26.33
2023-04-07T05:38:07.173Z,29.88
2023-04-07T05:40:37.406Z,36.53
2023-04-07T05:43:07.668Z,30.15
2023-04-07T05:45:37.099Z,35.53
2023-04-07T05:48:06.976Z,32.83
2023-04-07T05:50:36.283Z,29.30
2023-04-07T05:53:07.361Z,30.27
2023-04-07T05:55:36.536Z,33.05
2023-04-07T05:58:06.143Z,39.10
2023-04-07T06:00:39.627Z,27.23
2023-04-07T06:03:08.894Z,22.75
2023-04-07T06:05:38.699Z,24.48
2023-04-07T06:08:10.534Z,23.40
2023-04-07T06:10:40.368Z,23.35
2023-04-07T06:13:10.277Z,22.67
2023-04-07T06:15:39.925Z,25.77
2023-04-07T06:18:09.663Z,25.20
2023-04-07T06:20:43.401Z,24.80
2023-04-07T06:23:19.363Z,23.13
2023-04-07T06:25:52.247Z,23.85
2023-04-07T06:28:22.515Z,25.85
2023-04-07T06:30:58.406Z,24.88
2023-04-07T06:33:29.208Z,22.58
2023-04-07T06:36:00.221Z,24.73
2023-04-07T06:38:31.768Z,27.08
2023-04-07T06:41:06.724Z,21.23
2023-04-07T06:43:36.025Z,23.75
2023-04-07T06:46:08.291Z,25.55
2023-04-07T06:48:37.756Z,27.60
2023-04-07T06:51:07.356Z,22.13
2023-04-07T06:53:38.115Z,22.27
2023-04-07T06:56:08.437Z,25.23
2023-04-07T06:58:38.494Z,25.05
2023-04-07T07:01:08.287Z,25.88
2023-04-07T07:03:37.678Z,23.10
2023-04-07T07:06:06.900Z,26.92
2023-04-07T07:08:37.619Z,36.85
2023-04-07T07:11:06.690Z,30.75
2023-04-07T07:13:36.461Z,39.38
2023-04-07T07:16:06.053Z,35.40
2023-04-07T07:18:43.637Z,28.58
2023-04-07T07:21:24.661Z,21.73
2023-04-07T07:26:27.625Z,72.40
2023-04-07T07:29:11.337Z,42.53
2023-04-07T07:31:40.860Z,26.25
2023-04-07T07:34:13.252Z,21.45
2023-04-07T07:36:44.838Z,20.58
2023-04-07T07:39:16.346Z,17.85
2023-04-07T07:41:48.576Z,33.20
2023-04-07T07:44:22.583Z,31.10
2023-04-07T07:46:51.425Z,30.23
2023-04-07T07:49:20.700Z,31.33
2023-04-07T07:51:49.852Z,26.00
2023-04-07T07:54:20.373Z,25.23
2023-04-07T07:59:54.868Z,28.17
2023-04-07T08:02:32.177Z,29.02
2023-04-07T08:05:06.059Z,23.83
2023-04-07T08:07:38.253Z,23.98
2023-04-07T08:10:09.988Z,23.65
2023-04-07T08:12:39.861Z,36.55
2023-04-07T08:15:10.618Z,30.02
2023-04-07T08:18:00.130Z,30.13
2023-04-07T08:20:36.389Z,34.65
2023-04-07T08:23:06.718Z,36.08
2023-04-07T08:25:37.537Z,36.08
2023-04-07T08:28:08.237Z,35.90
2023-04-07T08:30:38.679Z,40.22
2023-04-07T08:33:08.532Z,37.20
2023-04-07T08:35:37.815Z,38.13
2023-04-07T08:38:09.268Z,30.33
2023-04-07T08:40:41.130Z,33.50
2023-04-07T08:45:45.115Z,34.55
2023-04-07T08:48:19.094Z,37.35
2023-04-07T08:50:54.927Z,41.03
2023-04-07T08:53:30.248Z,38.42
2023-04-07T08:56:08.349Z,33.65
2023-04-07T08:58:38.726Z,35.90
2023-04-07T09:01:08.869Z,35.75
2023-04-07T09:03:42.931Z,34.53
2023-04-07T09:06:19.532Z,34.80
2023-04-07T09:08:49.226Z,42.15
2023-04-07T09:11:20.854Z,44.40
2023-04-07T09:13:59.277Z,42.58
2023-04-07T09:16:36.428Z,36.65
2023-04-07T09:19:07.124Z,32.22
2023-04-07T09:21:51.762Z,32.15
2023-04-07T09:24:27.314Z,31.75
2023-04-07T09:27:21.391Z,30.50
2023-04-07T09:29:53.578Z,37.00
2023-04-07T09:32:39.567Z,46.25
2023-04-07T09:35:20.968Z,44.65
2023-04-07T09:38:07.167Z,41.92
2023-04-07T09:40:43.916Z,41.63
2023-04-07T09:43:21.152Z,45.60
2023-04-07T09:45:53.585Z,40.10
2023-04-07T09:48:23.698Z,36.90
2023-04-07T09:50:54.261Z,34.00
2023-04-07T09:53:44.391Z,38.22
2023-04-07T09:56:14.779Z,34.95
2023-04-07T09:58:48.044Z,35.58
2023-04-07T10:01:21.118Z,53.08
2023-04-07T10:03:53.246Z,59.22
2023-04-07T10:06:24.728Z,53.05
2023-04-07T10:08:55.861Z,50.15
2023-04-07T10:11:26.796Z,42.78
2023-04-07T10:14:00.630Z,36.03
2023-04-07T10:16:33.006Z,34.92
2023-04-07T10:19:03.914Z,41.50
2023-04-07T10:21:33.161Z,37.90
2023-04-07T10:24:23.828Z,39.60
2023-04-07T10:27:11.950Z,33.00
2023-04-07T10:29:59.585Z,29.67
2023-04-07T10:32:31.679Z,32.35
2023-04-07T10:35:04.457Z,32.78
2023-04-07T10:37:36.687Z,32.88
2023-04-07T10:40:33.388Z,29.85
2023-04-07T10:43:04.401Z,29.25
2023-04-07T10:46:01.153Z,31.50
2023-04-07T10:48:37.323Z,34.80
2023-04-07T10:51:24.790Z,29.50
2023-04-07T10:54:26.786Z,31.73
2023-04-07T10:57:15.028Z,37.63
2023-04-07T11:00:19.780Z,34.90
2023-04-07T11:02:52.553Z,30.65
2023-04-07T11:05:23.972Z,34.17
2023-04-07T11:07:59.661Z,40.63
2023-04-07T11:10:28.837Z,34.25
2023-04-07T11:13:02.853Z,33.22
2023-04-07T11:15:32.926Z,33.80
2023-04-07T11:18:18.409Z,31.95
2023-04-07T11:20:51.802Z,25.65
2023-04-07T11:23:23.421Z,25.80
2023-04-07T11:26:07.646Z,26.63
2023-04-07T11:28:42.128Z,29.52
2023-04-07T11:31:13.428Z,27.55
2023-04-07T11:33:54.415Z,29.15
2023-04-07T11:36:31.134Z,27.73
2023-04-07T11:39:01.604Z,27.52
2023-04-07T11:41:32.909Z,26.92
2023-04-07T11:44:08.608Z,24.13
2023-04-07T11:46:38.190Z,36.95
2023-04-07T11:49:13.314Z,32.80
2023-04-07T11:51:44.249Z,28.92
2023-04-07T11:54:13.580Z,29.50
2023-04-07T11:56:48.007Z,20.40
2023-04-07T11:59:27.224Z,26.63
2023-04-07T12:01:58.116Z,20.90
2023-04-07T12:07:09.090Z,18.50
2023-04-07T12:09:38.878Z,16.98
2023-04-07T12:12:10.819Z,16.02
2023-04-07T12:14:40.201Z,17.33
2023-04-07T12:17:09.636Z,15.88
2023-04-07T12:19:40.074Z,19.92
2023-04-07T12:22:09.042Z,19.30
2023-04-07T12:24:48.228Z,17.93
2023-04-07T12:27:19.330Z,19.20
2023-04-07T12:29:54.236Z,24.08
2023-04-07T12:32:23.046Z,19.52
2023-04-07T12:34:54.268Z,22.15
2023-04-07T12:37:26.596Z,24.60
2023-04-07T12:39:55.700Z,20.95
2023-04-07T12:42:24.286Z,19.73
2023-04-07T12:44:56.974Z,23.73
2023-04-07T12:47:25.704Z,27.95
2023-04-07T12:49:59.223Z,33.85
2023-04-07T12:52:30.869Z,33.70
2023-04-07T12:54:59.979Z,37.90
2023-04-07T12:57:29.088Z,32.70
2023-04-07T13:00:01.781Z,26.73
2023-04-07T13:05:06.501Z,26.92
2023-04-07T13:07:37.525Z,20.40
2023-04-07T13:10:08.626Z,23.65
2023-04-07T13:12:40.397Z,16.67
2023-04-07T13:15:10.231Z,18.20
2023-04-07T13:17:41.744Z,17.42
2023-04-07T13:20:13.464Z,18.48
2023-04-07T13:25:33.799Z,24.38
2023-04-07T13:28:03.066Z,25.45
2023-04-07T13:30:33.006Z,25.52
2023-04-07T13:33:01.932Z,27.42
2023-04-07T13:35:36.172Z,36.47
2023-04-07T13:38:06.022Z,28.92
2023-04-07T13:40:38.672Z,26.08
2023-04-07T13:43:12.743Z,26.55
2023-04-07T13:45:51.314Z,30.55
2023-04-07T13:48:29.469Z,25.73
2023-04-07T13:51:01.612Z,26.42
2023-04-07T13:53:31.545Z,23.63
2023-04-07T13:56:04.461Z,26.73
2023-04-07T13:58:36.879Z,33.38
2023-04-07T14:01:17.870Z,34.70
2023-04-07T14:03:53.498Z,24.27
2023-04-07T14:06:25.080Z,23.20
2023-04-07T14:08:54.505Z,21.17
2023-04-07T14:11:24.228Z,20.83
2023-04-07T14:13:54.711Z,26.52
2023-04-07T14:16:27.817Z,22.83
2023-04-07T14:19:05.461Z,25.52
2023-04-07T14:21:40.025Z,20.83
2023-04-07T14:24:14.627Z,27.90
2023-04-07T14:26:48.302Z,29.15
2023-04-07T14:29:36.519Z,32.40
2023-04-07T14:32:16.588Z,22.80
2023-04-07T14:34:45.875Z,25.70
2023-04-07T14:37:19.111Z,24.80
2023-04-07T14:40:01.846Z,23.73
2023-04-07T14:42:36.215Z,22.77
2023-04-07T14:45:16.460Z,19.83
2023-04-07T14:47:46.242Z,22.00
2023-04-07T14:50:15.422Z,20.45
2023-04-07T14:52:46.936Z,19.88
2023-04-07T14:55:16.672Z,20.83
2023-04-07T14:57:46.231Z,31.30
2023-04-07T15:00:19.585Z,22.13
2023-04-07T15:02:54.948Z,22.67
2023-04-07T15:05:28.863Z,22.55
2023-04-07T15:08:03.225Z,36.25
2023-04-07T15:10:36.517Z,42.30
2023-04-07T15:13:06.289Z,27.65
2023-04-07T15:15:41.063Z,29.25
2023-04-07T15:18:13.490Z,28.05
2023-04-07T15:20:43.332Z,26.20
2023-04-07T15:23:15.293Z,27.13
2023-04-07T15:25:49.467Z,23.73
2023-04-07T15:28:21.161Z,25.33
2023-04-07T15:30:52.131Z,33.17
2023-04-07T15:33:25.384Z,29.08
2023-04-07T15:35:55.281Z,31.20
2023-04-07T15:38:26.804Z,35.35
2023-04-07T15:40:56.646Z,32.60
2023-04-07T15:43:26.034Z,28.02
2023-04-07T15:45:56.486Z,30.77
2023-04-07T15:48:26.177Z,37.27
2023-04-07T15:50:56.201Z,30.38
2023-04-07T15:53:30.995Z,28.98
2023-04-07T15:56:05.132Z,32.53
2023-04-07T15:58:40.933Z,40.67
2023-04-07T16:01:17.521Z,32.78
2023-04-07T16:04:19.697Z,31.08
2023-04-07T16:06:52.479Z,34.22
2023-04-07T16:09:28.184Z,31.80
2023-04-07T16:11:57.633Z,29.35
2023-04-07T16:14:34.305Z,35.85
2023-04-07T16:17:07.477Z,31.00
2023-04-07T16:19:43.953Z,35.30
2023-04-07T16:22:12.996Z,27.27
2023-04-07T16:24:46.024Z,27.77
2023-04-07T16:27:15.352Z,25.35
2023-04-07T16:29:44.838Z,28.88
2023-04-07T16:32:14.993Z,26.60
2023-04-07T16:34:59.603Z,27.30
2023-04-07T16:37:30.535Z,29.92
2023-04-07T16:40:01.917Z,40.80
2023-04-07T16:42:30.870Z,48.75
2023-04-07T16:45:04.470Z,38.13
2023-04-07T16:50:25.929Z,39.88
2023-04-07T16:52:57.529Z,40.17
2023-04-07T16:55:29.545Z,37.53
2023-04-07T16:57:59.076Z,34.13
2023-04-07T17:00:33.239Z,30.25
2023-04-07T17:03:02.297Z,32.78
2023-04-07T17:05:34.710Z,32.25
2023-04-07T17:08:06.010Z,37.83
2023-04-07T17:10:36.724Z,33.05
2023-04-07T17:13:05.715Z,28.88
2023-04-07T17:15:37.980Z,38.45
2023-04-07T17:18:07.169Z,31.85
2023-04-07T17:20:36.324Z,28.30
2023-04-07T17:23:09.515Z,27.77
2023-04-07T17:25:43.267Z,30.33
2023-04-07T17:28:20.472Z,36.05
2023-04-07T17:30:50.532Z,51.42
2023-04-07T17:33:19.824Z,52.42
2023-04-07T17:35:55.352Z,48.75
2023-04-07T17:38:27.031Z,42.47
2023-04-07T17:41:04.950Z,37.70
2023-04-07T17:43:40.522Z,39.13
2023-04-07T17:46:11.220Z,32.92
2023-04-07T17:48:40.885Z,32.92
2023-04-07T17:51:12.716Z,36.05
2023-04-07T17:53:41.789Z,35.35
2023-04-07T17:56:12.842Z,33.70
2023-04-07T17:58:46.218Z,35.05
2023-04-07T18:01:18.953Z,34.58
2023-04-07T18:03:50.981Z,35.97
2023-04-07T18:06:20.993Z,33.42
2023-04-07T18:08:50.708Z,33.88
2023-04-07T18:11:22.437Z,39.33
2023-04-07T18:13:57.148Z,35.63
2023-04-07T18:16:26.671Z,39.75
2023-04-07T18:19:00.679Z,34.72
2023-04-07T18:21:32.026Z,34.67
2023-04-07T18:24:02.987Z,35.45
2023-04-07T18:29:11.015Z,37.08
2023-04-07T18:31:42.451Z,38.10
2023-04-07T18:34:13.118Z,37.35
2023-04-07T18:36:43.173Z,33.78
2023-04-07T18:39:13.663Z,35.15
2023-04-07T18:41:46.630Z,42.00
2023-04-07T18:44:15.729Z,42.30
2023-04-07T18:46:50.075Z,46.30
2023-04-07T18:49:19.354Z,41.65
2023-04-07T18:51:49.447Z,49.47
2023-04-07T18:54:19.907Z,50.92
2023-04-07T18:56:56.405Z,37.22
2023-04-07T18:59:26.261Z,48.42
2023-04-07T19:01:56.626Z,52.20
2023-04-07T19:04:28.164Z,45.45
2023-04-07T19:06:57.765Z,43.53
2023-04-07T19:09:27.225Z,50.58
2023-04-07T19:11:58.283Z,44.17
2023-04-07T19:14:33.563Z,42.87
2023-04-07T19:17:06.344Z,41.78
2023-04-07T19:19:35.909Z,41.60
2023-04-07T19:22:05.450Z,40.53
2023-04-07T19:29:38.517Z,41.40
2023-04-07T19:32:08.040Z,41.88
2023-04-07T19:34:43.008Z,45.38
2023-04-07T19:37:12.131Z,43.28
2023-04-07T19:40:01.544Z,41.90
2023-04-07T19:42:33.526Z,39.90
2023-04-07T19:45:02.794Z,40.63
2023-04-07T19:47:32.855Z,44.22
2023-04-07T19:50:02.442Z,35.55
2023-04-07T19:52:33.353Z,36.03
2023-04-07T19:55:03.909Z,39.43
2023-04-07T19:57:35.339Z,33.65
2023-04-07T20:02:35.918Z,36.47
2023-04-07T20:05:08.605Z,35.83
2023-04-07T20:07:38.002Z,39.78
2023-04-07T20:10:07.892Z,34.85
2023-04-07T20:12:39.444Z,33.45
2023-04-07T20:15:09.912Z,37.80
2023-04-07T20:17:40.125Z,39.78
2023-04-07T20:20:15.773Z,37.80
2023-04-07T20:22:45.515Z,37.83
2023-04-07T20:25:14.454Z,36.38
2023-04-07T20:27:46.809Z,38.20
2023-04-07T20:30:16.398Z,40.55
2023-04-07T20:32:47.138Z,44.28
2023-04-07T20:35:16.089Z,43.15
2023-04-07T20:37:45.877Z,42.67
2023-04-07T20:40:14.963Z,42.15
2023-04-07T20:42:47.649Z,40.17
2023-04-07T20:47:45.889Z,47.20
2023-04-07T20:50:14.759Z,49.72
2023-04-07T20:52:45.786Z,49.90
2023-04-07T20:55:14.924Z,42.38
2023-04-07T20:57:44.036Z,45.00
2023-04-07T21:00:18.935Z,48.25
2023-04-07T21:02:48.819Z,44.72
2023-04-07T21:05:17.564Z,47.00
2023-04-07T21:07:46.578Z,48.35
2023-04-07T21:10:18.259Z,46.75
2023-04-07T21:12:49.450Z,47.20
2023-04-07T21:15:19.768Z,54.35
2023-04-07T21:17:48.746Z,51.88
2023-04-07T21:20:17.766Z,52.72
2023-04-07T21:22:47.380Z,41.88
2023-04-07T21:25:16.255Z,40.22
2023-04-07T21:27:45.657Z,41.00
2023-04-07T21:30:18.917Z,49.22
2023-04-07T21:32:48.086Z,47.03
2023-04-07T21:35:17.808Z,44.45
2023-04-07T21:37:47.050Z,45.70
2023-04-07T21:40:17.008Z,53.53
2023-04-07T21:42:48.316Z,48.70
2023-04-07T21:45:18.935Z,46.38
2023-04-07T21:47:47.865Z,50.03
2023-04-07T21:50:17.178Z,49.97
2023-04-07T21:55:33.174Z,47.35
2023-04-07T21:58:07.920Z,58.60
2023-04-07T22:00:39.296Z,41.53
2023-04-07T22:03:08.857Z,53.08
2023-04-07T22:05:44.276Z,54.58
2023-04-07T22:08:24.592Z,53.50
2023-04-07T22:11:05.480Z,67.88
2023-04-07T22:13:38.163Z,51.67
2023-04-07T22:16:08.990Z,40.70
2023-04-07T22:18:44.722Z,47.65
2023-04-07T22:21:14.420Z,44.85
2023-04-07T22:23:54.281Z,49.78
2023-04-07T22:26:24.172Z,54.00
2023-04-07T22:29:03.781Z,43.10
2023-04-07T22:31:37.030Z,37.35
2023-04-07T22:34:07.070Z,40.30
2023-04-07T22:36:36.860Z,58.85
2023-04-07T22:39:09.321Z,37.20
2023-04-07T22:41:38.739Z,32.28
2023-04-07T22:44:38.551Z,28.60
2023-04-07T22:50:19.624Z,27.17
2023-04-07T22:52:53.773Z,33.42
2023-04-07T22:55:24.412Z,33.42
2023-04-07T23:00:55.727Z,39.40
2023-04-07T23:03:32.113Z,32.85
2023-04-07T23:06:25.733Z,41.17
2023-04-07T23:08:55.704Z,36.67
2023-04-07T23:11:24.108Z,37.15
2023-04-07T23:13:52.823Z,34.28
2023-04-07T23:16:21.133Z,34.38
2023-04-07T23:18:49.876Z,37.22
2023-04-07T23:21:20.001Z,34.67
2023-04-07T23:23:48.866Z,35.10
2023-04-07T23:26:18.044Z,33.67
2023-04-07T23:28:47.001Z,38.47
2023-04-07T23:31:15.356Z,35.90
2023-04-07T23:33:43.792Z,32.80
2023-04-07T23:36:12.056Z,34.75
2023-04-07T23:38:42.124Z,34.75
2023-04-07T23:41:10.480Z,38.83
2023-04-07T23:43:39.540Z,38.03
2023-04-07T23:46:08.003Z,33.65
2023-04-07T23:48:36.825Z,36.38
2023-04-07T23:51:05.152Z,37.92
2023-04-07T23:53:33.676Z,33.15
2023-04-07T23:56:03.501Z,32.78
2023-04-07T23:58:31.934Z,30.27
